Time;durP1;ratioP1;P1;durP2;ratioP2;P2;SDS_P1;SDS_P2;PMS_P1;PMS_P2;Temp;Humidity;BMP_temperature;BMP_pressure;BME280_temperature;BME280_humidity;BME280_pressure;Samples;Min_cycle;Max_cycle;Signal;HPM_P1;HPM_P2
2023/12/08 00:02:13;;;;;;;3.35;2.22;;;4.30;99.90;;;;;;1943439;72;21433;-63
2023/12/08 00:04:42;;;;;;;3.55;2.37;;;4.30;99.90;;;;;;1943594;73;21323;-63
2023/12/08 00:07:13;;;;;;;3.70;2.92;;;4.30;99.90;;;;;;1943650;74;21245;-63
2023/12/08 00:09:42;;;;;;;2.40;1.50;;;4.30;99.90;;;;;;1943600;74;21488;-63
2023/12/08 00:12:11;;;;;;;4.40;2.52;;;4.30;99.90;;;;;;1943455;73;21163;-63
2023/12/08 00:14:40;;;;;;;3.92;3.10;;;4.30;99.90;;;;;;1943497;72;21170;-63
2023/12/08 00:17:10;;;;;;;5.08;2.98;;;4.30;99.90;;;;;;1943687;73;21403;-63
2023/12/08 00:19:40;;;;;;;5.35;2.15;;;4.30;99.90;;;;;;1943535;73;21304;-63
2023/12/08 00:22:09;;;;;;;3.70;2.30;;;4.30;99.90;;;;;;1943562;73;21277;-63
2023/12/08 00:24:38;;;;;;;2.27;1.65;;;;;;;;;;1943609;74;21091;-63
2023/12/08 00:27:08;;;;;;;3.37;2.37;;;;;;;;;;1943544;74;21315;-63
2023/12/08 00:29:36;;;;;;;2.20;1.42;;;;;;;;;;1943668;74;21229;-63
2023/12/08 00:32:05;;;;;;;4.33;2.33;;;;;;;;;;1943578;73;21261;-63
2023/12/08 00:34:34;;;;;;;2.12;1.90;;;;;;;;;;1943515;72;21307;-63
2023/12/08 00:37:03;;;;;;;5.05;3.20;;;;;;;;;;1943573;74;21360;-63
2023/12/08 00:39:31;;;;;;;1.60;1.50;;;;;;;;;;1887518;75;21385;-63
2023/12/08 00:42:00;;;;;;;3.42;2.37;;;;;;;;;;1884810;75;21361;-62
2023/12/08 00:44:29;;;;;;;4.12;3.02;;;;;;;;;;1939895;74;21206;-63
2023/12/08 00:46:57;;;;;;;4.75;2.22;;;;;;;;;;1939841;74;21269;-63
2023/12/08 00:49:26;;;;;;;2.45;1.90;;;;;;;;;;1939868;73;21319;-63
2023/12/08 00:51:54;;;;;;;2.47;1.60;;;;;;;;;;1939943;73;21191;-63
2023/12/08 00:54:23;;;;;;;5.22;3.67;;;;;;;;;;1884096;76;21290;-63
2023/12/08 00:56:52;;;;;;;4.37;2.70;;;;;;;;;;1939859;73;21386;-63
2023/12/08 00:59:20;;;;;;;4.10;2.65;;;;;;;;;;1939855;74;21324;-63
2023/12/08 01:01:49;;;;;;;4.05;2.27;;;;;;;;;;1939823;74;21265;-63
2023/12/08 01:04:18;;;;;;;5.80;3.52;;;;;;;;;;1939880;74;21222;-63
2023/12/08 01:06:46;;;;;;;4.83;3.70;;;;;;;;;;1939847;74;21268;-63
2023/12/08 01:09:15;;;;;;;5.37;2.83;;;;;;;;;;1939807;74;21325;-63
2023/12/08 01:11:44;;;;;;;5.22;3.02;;;;;;;;;;1939848;74;21265;-63
2023/12/08 01:14:12;;;;;;;1.60;1.32;;;;;;;;;;1939925;74;21289;-63
2023/12/08 01:16:41;;;;;;;3.62;2.95;;;;;;;;;;1939964;73;21377;-63
2023/12/08 01:19:11;;;;;;;3.12;2.45;;;;;;;;;;1940009;74;21397;-63
2023/12/08 01:21:40;;;;;;;3.62;2.60;;;;;;;;;;1939933;74;21377;-63
2023/12/08 01:24:08;;;;;;;2.80;1.77;;;;;;;;;;1939945;73;21313;-63
2023/12/08 01:26:37;;;;;;;3.65;2.17;;;;;;;;;;1884217;75;21399;-63
2023/12/08 01:29:06;;;;;;;5.37;2.80;;;;;;;;;;1939949;74;21434;-63
2023/12/08 01:31:34;;;;;;;2.92;2.60;;;;;;;;;;1939944;73;21320;-63
2023/12/08 01:34:03;;;;;;;5.50;3.12;;;;;;;;;;1939922;73;21257;-63
2023/12/08 01:36:32;;;;;;;2.75;2.12;;;;;;;;;;1940035;74;21124;-63
2023/12/08 01:39:00;;;;;;;1.85;1.67;;;;;;;;;;1939971;73;21237;-63
2023/12/08 01:41:29;;;;;;;4.20;2.87;;;;;;;;;;1937274;74;21108;-63
2023/12/08 01:43:58;;;;;;;8.83;3.35;;;;;;;;;;1933153;73;21269;-63
2023/12/08 01:46:26;;;;;;;5.45;3.27;;;;;;;;;;1933158;74;21324;-63
2023/12/08 01:48:55;;;;;;;3.98;3.30;;;;;;;;;;1933125;74;21272;-63
2023/12/08 01:51:23;;;;;;;2.47;2.25;;;;;;;;;;1933186;73;21123;-63
2023/12/08 01:53:52;;;;;;;6.65;2.80;;;;;;;;;;1933137;74;21266;-63
2023/12/08 01:56:21;;;;;;;4.42;2.83;;;;;;;;;;1933144;73;21325;-63
2023/12/08 01:58:49;;;;;;;5.47;3.58;;;;;;;;;;1877696;76;21378;-63
2023/12/08 02:01:18;;;;;;;6.37;3.90;;;;;;;;;;1933231;74;21281;-63
2023/12/08 02:03:50;;;;;;;3.60;2.17;;;;;;;;;;1933221;74;21474;-63
2023/12/08 02:06:17;;;;;;;5.33;3.05;;;;;;;;;;1932975;74;21700;-63
2023/12/08 02:08:49;;;;;;;3.33;2.77;;;;;;;;;;1933131;73;21316;-63
2023/12/08 02:11:19;;;;;;;4.62;2.70;;;;;;;;;;1933115;73;21258;-63
2023/12/08 02:13:47;;;;;;;5.12;3.65;;;;;;;;;;1933112;73;21308;-63
2023/12/08 02:16:17;;;;;;;5.30;3.10;;;;;;;;;;1933235;73;21269;-63
2023/12/08 02:18:46;;;;;;;2.15;1.75;;;;;;;;;;1932387;74;21303;-63
2023/12/08 02:21:15;;;;;;;7.05;4.58;;;;;;;;;;1877874;76;21297;-63
2023/12/08 02:23:48;;;;;;;4.25;3.50;;;;;;;;;;1933086;74;21254;-63
2023/12/08 02:26:17;;;;;;;4.17;3.22;;;;;;;;;;1933023;74;21115;-63
2023/12/08 02:28:46;;;;;;;3.72;1.92;;;;;;;;;;1933150;73;21312;-63
2023/12/08 02:31:16;;;;;;;3.35;2.25;;;;;;;;;;1877763;75;21412;-63
2023/12/08 02:33:46;;;;;;;4.22;2.83;;;;;;;;;;1933078;74;21317;-63
2023/12/08 02:36:16;;;;;;;4.42;2.70;;;;;;;;;;1933275;73;21569;-63
2023/12/08 02:38:46;;;;;;;5.10;3.75;;;;;;;;;;1877738;76;21264;-63
2023/12/08 02:41:14;;;;;;;3.10;2.00;;;;;;;;;;1933060;74;21312;-63
2023/12/08 02:43:43;;;;;;;3.50;2.45;;;;;;;;;;1933129;74;21258;-63
2023/12/08 02:46:12;;;;;;;4.28;3.55;;;;;;;;;;1933115;73;21263;-63
2023/12/08 02:48:40;;;;;;;5.47;3.30;;;;;;;;;;1933180;73;21305;-63
2023/12/08 02:51:09;;;;;;;4.58;3.17;;;;;;;;;;1933081;74;21268;-63
2023/12/08 02:53:38;;;;;;;3.55;3.08;;;;;;;;;;1933149;73;21329;-63
2023/12/08 02:56:07;;;;;;;2.67;2.47;;;;;;;;;;1933216;74;21222;-63
2023/12/08 02:58:35;;;;;;;5.83;3.45;;;;;;;;;;1877696;76;21408;-62
2023/12/08 03:01:04;;;;;;;4.70;3.55;;;;;;;;;;1933067;73;21322;-63
2023/12/08 03:03:33;;;;;;;4.00;2.80;;;;;;;;;;1932995;73;21387;-63
2023/12/08 03:06:01;;;;;;;4.90;3.55;;;;;;;;;;1933114;74;21312;-63
2023/12/08 03:08:30;;;;;;;4.30;2.83;;;;;;;;;;1933155;74;21445;-63
2023/12/08 03:10:58;;;;;;;3.80;2.70;;;;;;;;;;1877692;75;21250;-63
2023/12/08 03:13:26;;;;;;;4.30;3.17;;;;;;;;;;1933166;74;21312;-63
2023/12/08 03:15:55;;;;;;;5.53;3.17;;;;;;;;;;1933120;73;21143;-63
2023/12/08 03:18:23;;;;;;;7.08;3.62;;;;;;;;;;1933062;74;21331;-63
2023/12/08 03:20:53;;;;;;;5.83;3.42;;;;;;;;;;1877703;76;21281;-63
2023/12/08 03:23:21;;;;;;;9.20;3.98;;;;;;;;;;1933017;74;21388;-63
2023/12/08 03:25:50;;;;;;;5.62;3.67;;;;;;;;;;1933109;74;21270;-63
2023/12/08 03:28:19;;;;;;;9.88;5.42;;;;;;;;;;1933073;74;21335;-63
2023/12/08 03:30:47;;;;;;;6.95;4.47;;;;;;;;;;1933077;74;21297;-63
2023/12/08 03:33:16;;;;;;;7.22;4.47;;;;;;;;;;1933064;74;21258;-63
2023/12/08 03:35:44;;;;;;;6.83;3.80;;;;;;;;;;1933053;74;21384;-63
2023/12/08 03:38:13;;;;;;;6.05;3.90;;;;;;;;;;1933044;73;21203;-63
2023/12/08 03:40:42;;;;;;;5.37;4.05;;;;;;;;;;1933190;74;21246;-63
2023/12/08 03:43:10;;;;;;;4.60;3.30;;;;;;;;;;1939944;72;21292;-63
2023/12/08 03:45:39;;;;;;;6.05;4.35;;;;;;;;;;1943519;73;21281;-63
2023/12/08 03:48:08;;;;;;;2.98;2.27;;;;;;;;;;1943447;73;21320;-63
2023/12/08 03:50:36;;;;;;;5.85;3.33;;;;;;;;;;1943500;74;21257;-63
2023/12/08 03:53:05;;;;;;;6.65;3.62;;;;;;;;;;1943428;73;21288;-62
2023/12/08 03:55:33;;;;;;;4.85;3.08;;;;;;;;;;1943473;72;21308;-63
2023/12/08 03:58:02;;;;;;;4.22;3.35;;;;;;;;;;1943427;73;21277;-63
2023/12/08 04:00:31;;;;;;;8.55;4.65;;;;;;;;;;1943447;73;21183;-63
2023/12/08 04:02:59;;;;;;;7.15;4.17;;;;;;;;;;1943399;74;21352;-63
2023/12/08 04:05:28;;;;;;;10.85;5.67;;;;;;;;;;1943514;74;21084;-63
2023/12/08 04:07:57;;;;;;;10.90;5.30;;;;;;;;;;1943406;74;21382;-63
2023/12/08 04:10:25;;;;;;;6.72;4.42;;;;;;;;;;1943427;74;21429;-63
2023/12/08 04:12:54;;;;;;;5.47;3.55;;;;;;;;;;1943358;73;21477;-63
2023/12/08 04:15:22;;;;;;;6.50;3.58;;;;;;;;;;1943445;73;21386;-63
2023/12/08 04:17:51;;;;;;;8.40;4.62;;;;;;;;;;1943442;73;21241;-63
2023/12/08 04:20:20;;;;;;;5.62;4.20;;;;;;;;;;1943508;74;21198;-63
2023/12/08 04:22:48;;;;;;;7.97;5.05;;;;;;;;;;1943367;73;21261;-63
2023/12/08 04:25:17;;;;;;;9.55;4.75;;;;;;;;;;1943422;73;21317;-63
2023/12/08 04:27:46;;;;;;;6.87;4.67;;;;;;;;;;1943351;74;21178;-63
2023/12/08 04:30:14;;;;;;;7.60;4.97;;;;;;;;;;1943432;74;21281;-63
2023/12/08 04:32:43;;;;;;;5.97;4.33;;;;;;;;;;1887595;75;21476;-63
2023/12/08 04:35:11;;;;;;;11.68;5.97;;;;;;;;;;1887469;75;21350;-63
2023/12/08 04:37:40;;;;;;;8.13;5.72;;;;;;;;;;1887480;75;21397;-63
2023/12/08 04:40:10;;;;;;;24.47;21.80;;;;;;;;;;1887641;75;21238;-63
2023/12/08 04:42:38;;;;;;;7.33;4.90;;;;;;;;;;1886573;75;21231;-63
2023/12/08 04:45:09;;;;;;;7.95;5.05;;;;;;;;;;1939862;73;21335;-63
2023/12/08 04:47:37;;;;;;;7.05;4.47;;;;;;;;;;1939783;73;21825;-63
2023/12/08 04:50:06;;;;;;;12.68;4.87;;;;;;;;;;1939921;73;21195;-63
2023/12/08 04:52:35;;;;;;;8.45;5.08;;;;;;;;;;1940052;73;21386;-63
2023/12/08 04:55:08;;;;;;;9.30;5.20;;;;;;;;;;1940001;73;21257;-63
2023/12/08 04:57:33;;;;;;;6.25;4.95;;;;;;;;;;1939343;74;21876;-63
2023/12/08 05:00:03;;;;;;;9.98;7.00;;;;;;;;;;1939996;73;21265;-63
2023/12/08 05:02:32;;;;;;;11.88;6.10;;;;;;;;;;1884156;75;21157;-62
2023/12/08 05:05:01;;;;;;;9.00;4.97;;;;;;;;;;1939867;73;21321;-62
2023/12/08 05:07:29;;;;;;;14.65;6.67;;;;;;;;;;1884197;76;21402;-62
2023/12/08 05:09:58;;;;;;;14.30;6.80;;;;;;;;;;1939913;73;21382;-62
2023/12/08 05:12:27;;;;;;;10.35;6.95;;;;;;;;;;1939878;74;21308;-62
2023/12/08 05:14:55;;;;;;;15.65;8.78;;;;;;;;;;1939874;73;21372;-62
2023/12/08 05:17:25;;;;;;;12.47;8.25;;;5.50;99.00;;;;;;1939883;74;21300;-62
2023/12/08 05:19:54;;;;;;;11.63;5.40;;;5.40;99.20;;;;;;1939869;74;21244;-62
2023/12/08 05:22:23;;;;;;;9.93;6.90;;;5.30;99.60;;;;;;1939835;73;21284;-62
2023/12/08 05:25:05;;;;;;;13.70;7.35;;;5.20;99.90;;;;;;1939960;73;21374;-62
2023/12/08 05:27:37;;;;;;;11.28;7.40;;;5.10;99.90;;;;;;1902774;70;21442;-62
2023/12/08 05:30:06;;;;;;;8.40;5.12;;;5.10;99.90;;;;;;1901957;75;21315;-62
2023/12/08 05:32:36;;;;;;;6.37;4.20;;;5.10;99.90;;;;;;1901795;75;21259;-62
2023/12/08 05:35:06;;;;;;;8.70;5.50;;;5.10;99.90;;;;;;1901876;75;21407;-62
2023/12/08 05:37:35;;;;;;;7.22;5.60;;;5.00;99.90;;;;;;1901780;75;21283;-62
2023/12/08 05:40:05;;;;;;;11.10;7.10;;;5.00;99.90;;;;;;1901837;75;21224;-61
2023/12/08 05:42:35;;;;;;;9.15;5.62;;;5.00;99.90;;;;;;1901803;75;21260;-62
2023/12/08 05:45:04;;;;;;;11.20;7.12;;;5.10;99.90;;;;;;1901867;75;21295;-62
2023/12/08 05:47:33;;;;;;;9.30;5.17;;;5.10;99.90;;;;;;1901824;75;21371;-62
2023/12/08 05:50:02;;;;;;;10.20;5.75;;;5.10;99.90;;;;;;1901828;75;21486;-62
2023/12/08 05:52:32;;;;;;;10.65;6.95;;;5.10;99.90;;;;;;1901815;74;21850;-61
2023/12/08 05:55:01;;;;;;;8.63;5.70;;;5.10;99.90;;;;;;1901832;75;21348;-62
2023/12/08 05:57:30;;;;;;;10.78;6.92;;;5.10;99.90;;;;;;1901984;75;21327;-62
2023/12/08 05:59:59;;;;;;;19.12;7.78;;;5.10;99.90;;;;;;1901823;75;21373;-61
2023/12/08 06:02:28;;;;;;;11.50;6.33;;;5.10;99.90;;;;;;1901768;75;21206;-61
2023/12/08 06:04:58;;;;;;;12.90;5.55;;;5.20;99.90;;;;;;1901835;75;21321;-62
2023/12/08 06:07:27;;;;;;;6.90;4.72;;;5.20;99.90;;;;;;1901919;74;21351;-62
2023/12/08 06:09:56;;;;;;;8.43;5.90;;;5.20;99.90;;;;;;1901973;75;21303;-62
2023/12/08 06:12:26;;;;;;;10.50;5.70;;;5.20;99.90;;;;;;1901971;75;21228;-62
2023/12/08 06:14:59;;;;;;;10.82;6.87;;;5.30;99.90;;;;;;1901832;75;21350;-61
2023/12/08 06:17:26;;;;;;;8.30;5.53;;;5.20;99.90;;;;;;1901278;75;21690;-62
2023/12/08 06:19:57;;;;;;;9.35;5.67;;;5.30;99.90;;;;;;1901884;75;21301;-61
2023/12/08 06:22:26;;;;;;;12.13;6.50;;;5.20;99.90;;;;;;1901798;75;21267;-62
2023/12/08 06:24:55;;;;;;;7.08;4.83;;;5.30;99.90;;;;;;1901949;75;21219;-63
2023/12/08 06:27:24;;;;;;;11.03;7.35;;;5.30;99.90;;;;;;1896449;75;21419;-62
2023/12/08 06:29:53;;;;;;;11.33;5.95;;;5.40;99.90;;;;;;1890579;76;21301;-63
2023/12/08 06:32:22;;;;;;;11.28;6.42;;;5.40;99.90;;;;;;1890596;76;21383;-63
2023/12/08 06:34:51;;;;;;;10.23;6.05;;;5.40;99.90;;;;;;1890689;76;21372;-62
2023/12/08 06:37:20;;;;;;;14.30;7.20;;;5.50;99.90;;;;;;1890749;76;21249;-63
2023/12/08 06:39:49;;;;;;;10.58;5.10;;;5.60;99.90;;;;;;1890593;76;21791;-63
2023/12/08 06:42:18;;;;;;;10.30;5.97;;;5.50;99.90;;;;;;1890627;76;21317;-62
2023/12/08 06:44:47;;;;;;;8.75;5.20;;;5.50;99.90;;;;;;1890574;76;21380;-62
2023/12/08 06:47:16;;;;;;;11.12;6.90;;;5.50;99.90;;;;;;1890721;76;21459;-63
2023/12/08 06:49:45;;;;;;;10.15;5.72;;;5.50;99.90;;;;;;1890607;76;21268;-63
2023/12/08 06:52:17;;;;;;;12.93;7.03;;;5.50;99.90;;;;;;1944022;73;21706;-62
2023/12/08 06:54:46;;;;;;;10.48;6.90;;;5.50;99.90;;;;;;1952574;73;21340;-62
2023/12/08 06:57:15;;;;;;;9.80;6.62;;;5.60;99.90;;;;;;1952632;73;21208;-62
2023/12/08 06:59:44;;;;;;;9.65;6.20;;;5.60;99.90;;;;;;1952666;73;21592;-62
2023/12/08 07:02:14;;;;;;;8.88;5.83;;;5.60;99.90;;;;;;1952680;73;21241;-62
2023/12/08 07:04:43;;;;;;;8.53;5.80;;;5.60;99.90;;;;;;1952728;73;21233;-62
2023/12/08 07:07:15;;;;;;;11.55;6.00;;;5.60;99.90;;;;;;1952624;73;21249;-62
2023/12/08 07:09:43;;;;;;;8.63;6.03;;;5.60;99.90;;;;;;1952715;73;21261;-62
2023/12/08 07:12:12;;;;;;;12.30;6.60;;;5.60;99.90;;;;;;1952615;73;21755;-62
2023/12/08 07:14:41;;;;;;;12.45;8.35;;;5.70;99.90;;;;;;1952691;73;21314;-62
2023/12/08 07:17:11;;;;;;;11.83;6.47;;;5.70;99.90;;;;;;1952604;73;21315;-62
2023/12/08 07:19:40;;;;;;;13.68;8.73;;;5.80;99.90;;;;;;1952596;73;21312;-62
2023/12/08 07:22:09;;;;;;;12.63;5.95;;;5.80;99.90;;;;;;1952523;73;21852;-62
2023/12/08 07:24:38;;;;;;;9.65;6.20;;;5.90;99.90;;;;;;1952651;73;21272;-62
2023/12/08 07:27:08;;;;;;;9.35;6.17;;;5.80;99.90;;;;;;1952692;73;21358;-62
2023/12/08 07:29:37;;;;;;;9.93;6.53;;;5.90;99.90;;;;;;1952644;73;21186;-62
2023/12/08 07:32:07;;;;;;;11.05;6.75;;;5.90;99.90;;;;;;1952565;73;21252;-62
2023/12/08 07:34:36;;;;;;;12.07;6.75;;;5.90;99.90;;;;;;1952588;73;21249;-62
2023/12/08 07:37:06;;;;;;;7.70;5.22;;;5.90;99.90;;;;;;1952585;73;21310;-62
2023/12/08 07:39:35;;;;;;;10.40;6.47;;;6.00;99.90;;;;;;1952719;73;21296;-62
2023/12/08 07:42:04;;;;;;;13.40;7.75;;;5.90;99.90;;;;;;1952540;73;21276;-62
2023/12/08 07:44:34;;;;;;;10.58;6.50;;;5.90;99.90;;;;;;1952674;73;21268;-62
2023/12/08 07:47:04;;;;;;;15.53;9.05;;;6.00;99.90;;;;;;1952613;73;21653;-62
2023/12/08 07:49:33;;;;;;;17.85;12.25;;;6.00;99.90;;;;;;1952640;73;21245;-62
2023/12/08 07:52:02;;;;;;;22.65;12.45;;;6.00;99.90;;;;;;1949685;72;21311;-62
2023/12/08 07:54:32;;;;;;;14.75;8.70;;;6.00;99.90;;;;;;1946868;74;21182;-62
2023/12/08 07:57:01;;;;;;;13.53;7.87;;;6.10;99.90;;;;;;1897181;76;21302;-62
2023/12/08 07:59:30;;;;;;;11.88;7.55;;;6.10;99.90;;;;;;1896945;75;21302;-62
2023/12/08 08:01:59;;;;;;;10.40;7.08;;;6.10;99.90;;;;;;1896956;76;21515;-62
2023/12/08 08:04:28;;;;;;;15.10;8.10;;;6.20;99.90;;;;;;1896986;75;21764;-62
2023/12/08 08:06:57;;;;;;;10.78;6.37;;;6.20;99.90;;;;;;1897056;75;21181;-62
2023/12/08 08:09:27;;;;;;;9.08;6.33;;;6.20;99.90;;;;;;1897086;76;21261;-62
2023/12/08 08:11:56;;;;;;;10.95;7.40;;;6.30;99.90;;;;;;1896924;74;21188;-62
2023/12/08 08:14:25;;;;;;;12.00;7.80;;;6.30;99.90;;;;;;1897105;76;21320;-62
2023/12/08 08:16:54;;;;;;;9.73;6.95;;;6.30;99.90;;;;;;1897095;76;21599;-62
2023/12/08 08:19:24;;;;;;;11.90;8.45;;;6.30;99.90;;;;;;1897042;76;21261;-62
2023/12/08 08:21:53;;;;;;;9.83;5.97;;;6.40;99.90;;;;;;1896928;76;21213;-62
2023/12/08 08:24:22;;;;;;;6.70;4.53;;;6.50;99.90;;;;;;1897388;75;21347;-62
2023/12/08 08:26:51;;;;;;;15.83;8.90;;;6.50;99.90;;;;;;1897001;76;21314;-65
2023/12/08 08:29:20;;;;;;;15.32;7.92;;;6.60;99.80;;;;;;1897023;75;21255;-61
2023/12/08 08:32:01;;;;;;;6.22;4.67;;;6.60;99.80;;;;;;1881699;76;21093;-61
2023/12/08 08:34:46;;;;;;;16.10;8.60;;;6.60;99.80;;;;;;1896496;75;21212;-61
2023/12/08 08:37:29;;;;;;;15.88;8.40;;;6.60;99.70;;;;;;1892823;74;22120;-60
2023/12/08 08:40:13;;;;;;;12.47;8.35;;;6.60;99.80;;;;;;1852059;76;21285;-62
2023/12/08 08:42:55;;;;;;;17.73;9.15;;;6.70;99.80;;;;;;1864288;76;21288;-60
2023/12/08 08:45:26;;;;;;;12.07;7.05;;;6.70;99.80;;;;;;1850065;77;21369;-59
2023/12/08 08:50:48;;;;;;;10.60;7.08;;;6.80;99.80;;;;;;1904672;75;21432;-60
2023/12/08 08:53:18;;;;;;;12.78;7.80;;;6.90;99.70;;;;;;1898972;75;21307;-65
2023/12/08 08:55:47;;;;;;;14.35;7.87;;;6.90;99.70;;;;;;1875766;76;21329;-64
2023/12/08 08:58:16;;;;;;;17.30;8.53;;;7.00;99.70;;;;;;1899112;75;21303;-63
2023/12/08 09:00:45;;;;;;;12.28;7.55;;;7.10;99.80;;;;;;1872464;76;21387;-66
2023/12/08 09:03:14;;;;;;;14.40;8.35;;;7.10;99.90;;;;;;1898375;75;21438;-72
2023/12/08 09:05:44;;;;;;;12.65;8.25;;;7.20;99.80;;;;;;1876626;76;21221;-60
2023/12/08 09:08:13;;;;;;;14.50;7.25;;;7.20;99.70;;;;;;1895474;75;21300;-62
2023/12/08 09:10:45;;;;;;;12.55;8.40;;;7.30;99.70;;;;;;1904427;74;21235;-64
2023/12/08 09:13:14;;;;;;;13.48;8.20;;;7.30;99.60;;;;;;1870149;75;21449;-63
2023/12/08 09:15:43;;;;;;;13.40;8.53;;;7.30;99.60;;;;;;1908890;75;21244;-63
2023/12/08 09:18:12;;;;;;;12.43;8.48;;;7.30;99.70;;;;;;1908628;75;21412;-62
2023/12/08 09:20:43;;;;;;;15.03;8.08;;;7.40;99.70;;;;;;1876380;76;21288;-67
2023/12/08 09:23:13;;;;;;;11.50;7.47;;;7.40;99.70;;;;;;1885769;75;21422;-66
2023/12/08 09:25:42;;;;;;;10.60;7.20;;;7.50;99.80;;;;;;1856989;76;21354;-66
2023/12/08 09:28:11;;;;;;;12.37;6.50;;;7.50;99.70;;;;;;1874494;76;21365;-66
2023/12/08 09:30:43;;;;;;;13.55;9.58;;;7.70;99.80;;;;;;1874530;76;21471;-67
2023/12/08 09:33:14;;;;;;;13.32;7.85;;;7.80;99.70;;;;;;1875633;74;21808;-66
2023/12/08 09:35:43;;;;;;;14.68;7.47;;;7.90;99.70;;;;;;1912822;74;21323;-66
2023/12/08 09:38:12;;;;;;;13.50;8.35;;;7.90;99.60;;;;;;1877838;76;21215;-66
2023/12/08 09:40:44;;;;;;;14.07;7.42;;;8.00;99.60;;;;;;1917733;75;21251;-60
2023/12/08 09:43:25;;;;;;;13.22;8.63;;;8.10;99.60;;;;;;1919493;75;21234;-60
2023/12/08 09:45:56;;;;;;;11.50;8.50;;;8.10;99.60;;;;;;1919366;74;21397;-61
2023/12/08 09:48:26;;;;;;;17.80;9.68;;;8.10;99.50;;;;;;1918542;75;21490;-60
2023/12/08 09:50:58;;;;;;;12.60;7.10;;;8.20;99.40;;;;;;1914558;75;21108;-60
2023/12/08 09:53:28;;;;;;;14.28;7.30;;;8.20;99.50;;;;;;1918892;74;21330;-61
2023/12/08 09:55:58;;;;;;;13.08;7.90;;;8.20;99.50;;;;;;1917387;73;21302;-60
2023/12/08 09:58:28;;;;;;;11.63;7.12;;;8.20;99.40;;;;;;1913608;73;21368;-60
2023/12/08 10:00:59;;;;;;;13.30;7.20;;;8.20;99.20;;;;;;1874865;75;21344;-62
2023/12/08 10:03:28;;;;;;;15.43;6.97;;;8.20;99.40;;;;;;1916846;74;21306;-61
2023/12/08 10:05:58;;;;;;;11.08;7.05;;;8.20;99.50;;;;;;1877800;75;21211;-61
2023/12/08 10:08:37;;;;;;;13.70;7.67;;;8.20;99.60;;;;;;1915079;73;21360;-63
2023/12/08 10:11:07;;;;;;;11.53;7.62;;;8.30;99.50;;;;;;1890715;74;21853;-58
2023/12/08 10:13:37;;;;;;;15.20;9.00;;;8.40;99.60;;;;;;1889068;75;21323;-59
2023/12/08 10:16:07;;;;;;;12.23;7.87;;;8.40;99.50;;;;;;1921263;73;21320;-58
2023/12/08 10:18:37;;;;;;;11.20;7.17;;;8.40;99.50;;;;;;1924237;73;21284;-59
2023/12/08 10:21:17;;;;;;;11.95;7.83;;;8.50;99.60;;;;;;1925443;73;21220;-60
2023/12/08 10:23:48;;;;;;;11.22;7.45;;;8.60;99.60;;;;;;1928184;73;21324;-60
2023/12/08 10:26:19;;;;;;;18.48;8.03;;;8.60;99.50;;;;;;1920749;73;21343;-59
2023/12/08 10:28:52;;;;;;;12.78;6.90;;;8.60;99.50;;;;;;1942708;73;21437;-59
2023/12/08 10:31:23;;;;;;;10.82;7.50;;;8.70;99.40;;;;;;1937987;73;21305;-61
2023/12/08 10:33:58;;;;;;;13.48;8.08;;;8.60;99.50;;;;;;1937611;73;21212;-61
2023/12/08 10:36:25;;;;;;;11.80;5.83;;;8.60;99.50;;;;;;1927539;73;21734;-59
2023/12/08 10:38:54;;;;;;;13.55;7.65;;;8.70;99.60;;;;;;1922232;73;21261;-60
2023/12/08 10:41:24;;;;;;;10.28;7.05;;;8.80;99.60;;;;;;1908001;75;21262;-60
2023/12/08 10:43:53;;;;;;;14.78;6.95;;;8.80;99.30;;;;;;1929266;73;21193;-61
2023/12/08 10:46:23;;;;;;;12.35;8.00;;;8.80;99.50;;;;;;1937533;73;21292;-60
2023/12/08 10:48:54;;;;;;;10.60;6.17;;;8.80;99.50;;;;;;1925489;73;21285;-60
2023/12/08 10:51:25;;;;;;;9.00;5.70;;;8.90;99.50;;;;;;1933943;73;21191;-58
2023/12/08 11:19:52;;;;;;;10.82;6.95;;;8.40;98.90;;;;;;1958905;72;26050;-60
2023/12/08 11:22:31;;;;;;;8.83;5.00;;;8.40;99.10;;;;;;1866605;76;21768;-60
2023/12/08 11:25:02;;;;;;;5.65;4.12;;;8.40;99.10;;;;;;1868293;76;21239;-60
2023/12/08 11:27:50;;;;;;;8.25;6.15;;;8.30;99.20;;;;;;1868221;75;21327;-60
2023/12/08 11:30:37;;;;;;;3.52;3.05;;;8.30;99.20;;;;;;1867830;76;21291;-60
2023/12/08 11:33:20;;;;;;;4.17;2.72;;;8.40;99.50;;;;;;1836934;77;21202;-60
2023/12/08 11:35:52;;;;;;;8.85;5.92;;;8.40;99.20;;;;;;1866866;76;21803;-59
2023/12/08 11:38:31;;;;;;;6.90;4.65;;;8.40;99.30;;;;;;1868474;77;21275;-60
2023/12/08 11:41:01;;;;;;;2.65;2.02;;;8.40;99.30;;;;;;1868509;76;21290;-60
2023/12/08 11:43:31;;;;;;;3.92;2.72;;;8.40;99.40;;;;;;1868386;76;21207;-59
2023/12/08 11:46:01;;;;;;;2.22;1.95;;;8.40;99.20;;;;;;1868378;77;21284;-60
2023/12/08 11:48:30;;;;;;;4.10;2.05;;;8.40;99.00;;;;;;1868373;76;21214;-60
2023/12/08 11:51:04;;;;;;;4.55;2.72;;;8.40;99.00;;;;;;1868237;76;21461;-59
2023/12/08 11:53:55;;;;;;;4.90;3.30;;;8.40;99.00;;;;;;1868416;76;21291;-60
2023/12/08 11:56:43;;;;;;;6.35;3.67;;;8.40;99.00;;;;;;1868283;75;21259;-60
2023/12/08 11:59:23;;;;;;;4.17;2.37;;;8.50;99.20;;;;;;1868228;75;21328;-59
2023/12/08 12:01:52;;;;;;;4.30;3.05;;;8.50;99.20;;;;;;1868245;76;21278;-60
2023/12/08 12:04:21;;;;;;;10.72;3.65;;;8.50;99.00;;;;;;1868314;77;21100;-60
2023/12/08 12:06:53;;;;;;;7.40;4.62;;;8.50;99.10;;;;;;1868429;76;21227;-60
2023/12/08 12:09:22;;;;;;;11.73;5.22;;;8.50;99.10;;;;;;1868302;76;21299;-60
2023/12/08 12:11:54;;;;;;;5.40;3.22;;;8.50;99.00;;;;;;1868432;76;21031;-60
2023/12/08 12:14:25;;;;;;;4.87;2.52;;;8.50;98.90;;;;;;1868339;76;21206;-61
2023/12/08 12:16:55;;;;;;;6.42;2.75;;;8.50;98.90;;;;;;1868438;76;21405;-61
2023/12/08 12:19:29;;;;;;;4.00;2.30;;;8.50;98.90;;;;;;1868288;77;21173;-61
2023/12/08 12:22:02;;;;;;;4.00;3.08;;;8.50;98.70;;;;;;1856024;74;21249;-60
2023/12/08 12:24:33;;;;;;;4.45;2.50;;;8.40;98.80;;;;;;1891630;75;21170;-61
2023/12/08 12:27:02;;;;;;;7.40;3.33;;;8.40;98.80;;;;;;1891599;76;21279;-61
2023/12/08 12:29:33;;;;;;;10.20;3.62;;;8.40;99.20;;;;;;1891293;75;21197;-61
2023/12/08 12:32:07;;;;;;;5.92;3.67;;;8.40;98.90;;;;;;1891108;75;21592;-61
2023/12/08 12:34:37;;;;;;;4.15;2.55;;;8.40;98.80;;;;;;1891035;76;21189;-61
2023/12/08 12:37:07;;;;;;;6.75;3.50;;;8.40;98.80;;;;;;1890919;75;21260;-61
2023/12/08 12:39:37;;;;;;;7.37;3.45;;;8.40;98.90;;;;;;1890881;76;21452;-61
2023/12/08 12:42:06;;;;;;;6.92;3.75;;;8.40;98.90;;;;;;1890831;76;21383;-61
2023/12/08 12:44:46;;;;;;;7.67;3.42;;;8.40;98.90;;;;;;1890999;76;21221;-61
2023/12/08 12:47:17;;;;;;;5.20;2.60;;;8.40;98.90;;;;;;1890886;75;21241;-61
2023/12/08 12:50:04;;;;;;;10.03;3.45;;;8.40;98.90;;;;;;1890508;75;21062;-60
2023/12/08 12:52:31;;;;;;;;;;;8.40;98.90;;;;;;1893787;74;21280;-60
2023/12/08 12:55:00;;;;;;;3.45;2.67;;;8.30;98.90;;;;;;1890905;76;20560;-60
2023/12/08 12:57:48;;;;;;;6.92;3.72;;;8.30;98.90;;;;;;1890802;75;21269;-60
2023/12/08 13:00:14;;;;;;;9.45;6.28;;;8.30;98.90;;;;;;1890255;75;21881;-60
2023/12/08 13:02:44;;;;;;;6.08;3.50;;;8.30;99.00;;;;;;1890939;76;21214;-60
2023/12/08 13:05:13;;;;;;;6.60;4.30;;;8.30;98.90;;;;;;1891073;76;21349;-60
2023/12/08 13:07:42;;;;;;;5.90;3.60;;;8.30;98.90;;;;;;1890929;76;21391;-60
2023/12/08 13:10:12;;;;;;;7.37;4.05;;;8.30;99.00;;;;;;1890883;76;21228;-60
2023/12/08 13:12:41;;;;;;;8.18;3.83;;;8.20;98.90;;;;;;1890925;76;21349;-60
2023/12/08 13:15:11;;;;;;;4.47;3.35;;;8.20;99.00;;;;;;1891122;76;21212;-60
2023/12/08 13:17:40;;;;;;;11.48;4.17;;;8.20;99.00;;;;;;1890877;76;21464;-60
2023/12/08 13:20:11;;;;;;;5.72;3.22;;;8.20;98.90;;;;;;1891031;75;21161;-60
2023/12/08 13:22:40;;;;;;;6.42;2.92;;;8.20;99.00;;;;;;1883337;74;21222;-60
2023/12/08 13:25:10;;;;;;;5.05;3.20;;;8.20;99.00;;;;;;1879118;76;21217;-60
2023/12/08 13:27:39;;;;;;;7.08;4.22;;;8.20;99.00;;;;;;1879004;76;21298;-60
2023/12/08 13:30:09;;;;;;;11.38;6.08;;;8.20;99.10;;;;;;1878951;76;21182;-60
2023/12/08 13:32:38;;;;;;;12.70;5.55;;;8.20;99.10;;;;;;1879047;76;21270;-60
2023/12/08 13:35:07;;;;;;;10.82;6.12;;;8.20;99.10;;;;;;1878936;75;21323;-60
2023/12/08 13:37:37;;;;;;;11.33;4.58;;;8.20;99.10;;;;;;1878991;76;21306;-60
2023/12/08 13:40:11;;;;;;;5.92;3.33;;;8.10;99.10;;;;;;1878919;76;21373;-60
2023/12/08 13:42:38;;;;;;;4.72;3.17;;;8.10;99.20;;;;;;1878841;74;21668;-60
2023/12/08 13:45:08;;;;;;;12.93;5.80;;;8.10;99.20;;;;;;1878952;76;21288;-60
2023/12/08 13:47:37;;;;;;;14.70;6.25;;;8.10;99.30;;;;;;1879046;76;21282;-60
2023/12/08 13:50:07;;;;;;;31.82;13.78;;;8.00;99.30;;;;;;1878996;75;21314;-60
2023/12/08 13:52:38;;;;;;;22.40;10.80;;;8.00;99.30;;;;;;1879085;76;21286;-60
2023/12/08 13:55:07;;;;;;;22.67;10.38;;;8.00;99.40;;;;;;1878926;76;21234;-60
2023/12/08 13:57:37;;;;;;;45.52;21.23;;;7.90;99.40;;;;;;1879012;76;21261;-60
2023/12/08 14:00:07;;;;;;;27.10;14.07;;;7.90;99.40;;;;;;1878913;76;21385;-60
2023/12/08 14:02:37;;;;;;;28.73;15.95;;;7.90;99.40;;;;;;1878934;76;21186;-60
2023/12/08 14:05:07;;;;;;;36.63;19.82;;;7.90;99.40;;;;;;1878970;76;21391;-60
2023/12/08 14:07:37;;;;;;;42.35;22.52;;;7.80;99.40;;;;;;1878901;75;21326;-60
2023/12/08 14:10:12;;;;;;;22.32;12.03;;;7.80;99.40;;;;;;1878919;76;21310;-60
2023/12/08 14:12:38;;;;;;;74.77;35.98;;;7.80;99.40;;;;;;1877461;76;21358;-60